createdAt,value
2018-09-11T00:01:57.723Z,98752.31
2018-09-11T00:04:28.070Z,98750.72
2018-09-11T00:06:58.644Z,98745.23
2018-09-11T00:09:29.091Z,98740.70
2018-09-11T00:12:00.567Z,98737.53
2018-09-11T00:14:32.126Z,98733.63
2018-09-11T00:17:03.045Z,98732.81
2018-09-11T00:19:34.139Z,98733.59
2018-09-11T00:22:04.610Z,98736.72
2018-09-11T00:24:35.371Z,98734.25
2018-09-11T00:27:07.919Z,98741.83
2018-09-11T00:29:39.742Z,98742.02
2018-09-11T00:32:11.630Z,98741.13
2018-09-11T00:34:42.753Z,98740.09
2018-09-11T00:37:13.044Z,98744.53
2018-09-11T00:39:44.411Z,98746.05
2018-09-11T00:42:16.771Z,98743.87
2018-09-11T00:44:53.739Z,98746.94
2018-09-11T00:47:27.378Z,98748.59
2018-09-11T00:50:00.075Z,98747.73
2018-09-11T00:52:31.221Z,98745.11
2018-09-11T00:55:03.241Z,98750.77
2018-09-11T00:57:34.659Z,98752.31
2018-09-11T01:00:06.807Z,98749.83
2018-09-11T01:02:37.904Z,98748.13
2018-09-11T01:05:08.026Z,98743.95
2018-09-11T01:07:39.986Z,98734.09
2018-09-11T01:10:12.052Z,98732.85
2018-09-11T01:12:43.052Z,98737.88
2018-09-11T01:15:14.316Z,98739.47
2018-09-11T01:17:44.514Z,98738.61
2018-09-11T01:20:16.500Z,98742.36
2018-09-11T01:22:46.524Z,98739.03
2018-09-11T01:25:17.224Z,98745.14
2018-09-11T01:27:47.770Z,98752.92
2018-09-11T01:30:21.518Z,98752.16
2018-09-11T01:32:52.902Z,98757.18
2018-09-11T01:35:24.992Z,98763.28
2018-09-11T01:37:56.276Z,98756.28
2018-09-11T01:40:27.462Z,98758.14
2018-09-11T01:42:59.706Z,98758.75
2018-09-11T01:45:31.886Z,98768.69
2018-09-11T01:48:03.077Z,98769.89
2018-09-11T01:50:35.389Z,98773.60
2018-09-11T01:53:06.404Z,98781.20
2018-09-11T01:55:37.259Z,98780.33
2018-09-11T01:58:08.549Z,98783.81
2018-09-11T02:00:41.546Z,98789.15
2018-09-11T02:03:13.336Z,98788.02
2018-09-11T02:05:43.904Z,98784.33
2018-09-11T02:08:14.617Z,98788.94
2018-09-11T02:10:45.078Z,98788.00
2018-09-11T02:13:16.495Z,98795.89
2018-09-11T02:15:47.112Z,98795.27
2018-09-11T02:18:17.272Z,98797.66
2018-09-11T02:20:49.650Z,98800.61
2018-09-11T02:23:19.770Z,98802.77
2018-09-11T02:25:49.943Z,98801.00
2018-09-11T02:28:21.722Z,98804.55
2018-09-11T02:30:52.947Z,98804.48
2018-09-11T02:33:25.727Z,98811.25
2018-09-11T02:35:56.276Z,98811.33
2018-09-11T02:38:29.593Z,98818.66
2018-09-11T02:40:59.627Z,98821.76
2018-09-11T02:43:30.463Z,98820.77
2018-09-11T02:46:00.515Z,98817.36
2018-09-11T02:48:32.302Z,98806.33
2018-09-11T02:51:04.412Z,98812.50
2018-09-11T02:53:35.630Z,98820.69
2018-09-11T02:56:06.678Z,98823.06
2018-09-11T02:58:39.502Z,98822.06
2018-09-11T03:01:11.392Z,98829.47
2018-09-11T03:03:44.264Z,98835.42
2018-09-11T03:06:17.320Z,98833.26
2018-09-11T03:08:51.958Z,98836.41
2018-09-11T03:11:23.305Z,98832.47
2018-09-11T03:13:54.459Z,98831.84
2018-09-11T03:16:26.954Z,98833.36
2018-09-11T03:18:57.766Z,98848.30
2018-09-11T03:21:32.460Z,98847.14
2018-09-11T03:24:02.541Z,98848.88
2018-09-11T03:26:32.789Z,98849.47
2018-09-11T03:29:02.941Z,98852.06
2018-09-11T03:31:33.578Z,98860.59
2018-09-11T03:34:03.779Z,98851.59
2018-09-11T03:36:34.046Z,98850.45
2018-09-11T03:39:07.025Z,98851.33
2018-09-11T03:41:39.415Z,98852.61
2018-09-11T03:44:09.503Z,98853.08
2018-09-11T03:46:40.116Z,98855.37
2018-09-11T03:49:10.640Z,98864.90
2018-09-11T03:51:40.734Z,98872.97
2018-09-11T03:54:12.969Z,98878.03
2018-09-11T03:56:47.649Z,98871.16
2018-09-11T03:59:21.643Z,98872.35
2018-09-11T04:01:54.579Z,98867.44
2018-09-11T04:04:28.043Z,98874.17
2018-09-11T04:07:00.727Z,98865.41
2018-09-11T04:09:33.743Z,98873.59
2018-09-11T04:12:05.787Z,98876.61
2018-09-11T04:14:36.035Z,98873.54
2018-09-11T04:17:06.589Z,98873.78
2018-09-11T04:19:37.719Z,98876.09
2018-09-11T04:22:25.563Z,98877.47
2018-09-11T04:25:08.523Z,98878.72
2018-09-11T04:27:38.975Z,98873.14
2018-09-11T04:30:10.196Z,98879.23
2018-09-11T04:32:40.409Z,98877.86
2018-09-11T04:35:10.586Z,98874.70
2018-09-11T04:37:40.751Z,98879.48
2018-09-11T04:40:13.493Z,98865.16
2018-09-11T04:42:44.705Z,98861.23
2018-09-11T04:48:07.219Z,98859.13
2018-09-11T04:50:38.761Z,98858.34
2018-09-11T04:53:09.970Z,98863.33
2018-09-11T04:55:40.502Z,98856.78
2018-09-11T04:58:11.203Z,98862.60
2018-09-11T05:00:41.549Z,98859.52
2018-09-11T05:03:12.695Z,98862.72
2018-09-11T05:05:43.884Z,98865.73
2018-09-11T05:08:14.153Z,98869.09
2018-09-11T05:10:45.914Z,98873.66
2018-09-11T05:13:17.030Z,98870.98
2018-09-11T05:15:49.329Z,98877.65
2018-09-11T05:18:19.555Z,98877.09
2018-09-11T05:20:51.976Z,98874.41
2018-09-11T05:23:22.146Z,98880.11
2018-09-11T05:25:53.560Z,98879.11
2018-09-11T05:28:24.118Z,98879.05
2018-09-11T05:30:55.073Z,98886.59
2018-09-11T05:33:27.963Z,98885.36
2018-09-11T05:36:04.627Z,98880.84
2018-09-11T05:38:38.402Z,98889.19
2018-09-11T05:41:13.455Z,98889.39
2018-09-11T05:43:48.062Z,98893.22
2018-09-11T05:46:20.732Z,98888.75
2018-09-11T05:48:55.586Z,98888.91
2018-09-11T05:51:27.438Z,98892.48
2018-09-11T05:53:58.670Z,98896.98
2018-09-11T05:56:29.506Z,98897.91
2018-09-11T05:58:59.996Z,98902.47
2018-09-11T06:01:30.796Z,98898.91
2018-09-11T06:04:01.278Z,98905.06
2018-09-11T06:06:31.552Z,98895.09
2018-09-11T06:09:01.944Z,98898.78
2018-09-11T06:11:32.324Z,98895.61
2018-09-11T06:14:04.444Z,98891.50
2018-09-11T06:16:36.272Z,98898.63
2018-09-11T06:19:07.205Z,98899.12
2018-09-11T06:21:38.366Z,98899.60
2018-09-11T06:24:09.726Z,98908.05
2018-09-11T06:26:40.071Z,98907.11
2018-09-11T06:29:11.541Z,98913.94
2018-09-11T06:31:41.934Z,98906.93
2018-09-11T06:34:12.956Z,98911.14
2018-09-11T06:36:56.096Z,98908.78
2018-09-11T06:39:31.209Z,98908.66
2018-09-11T06:42:01.542Z,98907.92
2018-09-11T06:44:33.102Z,98920.69
2018-09-11T06:47:04.976Z,98924.47
2018-09-11T06:49:37.005Z,98922.84
2018-09-11T06:52:07.117Z,98919.45
2018-09-11T06:54:39.354Z,98930.55
2018-09-11T06:57:09.443Z,98928.18
2018-09-11T06:59:40.492Z,98923.11
2018-09-11T07:02:10.842Z,98931.91
2018-09-11T07:04:40.927Z,98934.41
2018-09-11T07:07:11.249Z,98933.19
2018-09-11T07:09:42.411Z,98924.81
2018-09-11T07:12:13.605Z,98921.42
2018-09-11T07:14:44.354Z,98925.21
2018-09-11T07:17:14.859Z,98924.89
2018-09-11T07:19:45.935Z,98923.41
2018-09-11T07:22:17.031Z,98920.53
2018-09-11T07:24:48.482Z,98918.36
2018-09-11T07:27:18.971Z,98926.19
2018-09-11T07:29:49.496Z,98932.23
2018-09-11T07:32:21.777Z,98928.97
2018-09-11T07:34:51.881Z,98932.16
2018-09-11T07:37:24.047Z,98937.20
2018-09-11T07:39:55.180Z,98936.66
2018-09-11T07:42:27.067Z,98942.84
2018-09-11T07:44:57.408Z,98946.75
2018-09-11T07:47:28.627Z,98944.33
2018-09-11T07:49:58.910Z,98940.68
2018-09-11T07:52:29.542Z,98939.34
2018-09-11T07:54:59.849Z,98935.58
2018-09-11T07:57:30.832Z,98942.95
2018-09-11T08:00:01.765Z,98952.20
2018-09-11T08:02:33.082Z,98946.45
2018-09-11T08:05:04.534Z,98956.31
2018-09-11T08:07:35.451Z,98943.17
2018-09-11T08:10:05.753Z,98957.47
2018-09-11T08:12:37.173Z,98964.44
2018-09-11T08:15:09.882Z,98968.69
2018-09-11T08:17:44.219Z,98963.44
2018-09-11T08:20:14.663Z,98960.80
2018-09-11T08:22:46.273Z,98958.01
2018-09-11T08:25:17.413Z,98957.66
2018-09-11T08:27:48.953Z,98949.23
2018-09-11T08:30:21.745Z,98940.17
2018-09-11T08:32:53.032Z,98945.47
2018-09-11T08:35:25.252Z,98935.00
2018-09-11T08:37:57.616Z,98940.09
2018-09-11T08:40:29.473Z,98936.42
2018-09-11T08:43:01.188Z,98935.25
2018-09-11T08:45:31.501Z,98939.39
2018-09-11T08:48:01.833Z,98936.84
2018-09-11T08:50:32.186Z,98937.36
2018-09-11T08:53:03.891Z,98943.02
2018-09-11T08:55:35.062Z,98942.80
2018-09-11T08:58:05.758Z,98940.00
2018-09-11T09:00:36.429Z,98941.95
2018-09-11T09:03:07.876Z,98936.34
2018-09-11T09:05:39.290Z,98941.37
2018-09-11T09:08:09.439Z,98947.95
2018-09-11T09:10:39.474Z,98947.16
2018-09-11T09:13:10.033Z,98943.42
2018-09-11T09:15:40.226Z,98936.50
2018-09-11T09:18:11.780Z,98942.38
2018-09-11T09:20:42.937Z,98948.70
2018-09-11T09:23:13.552Z,98934.96
2018-09-11T09:25:45.281Z,98933.03
2018-09-11T09:28:17.225Z,98936.53
2018-09-11T09:30:47.301Z,98926.65
2018-09-11T09:33:18.351Z,98926.39
2018-09-11T09:36:00.638Z,98924.14
2018-09-11T09:38:33.147Z,98925.52
2018-09-11T09:41:04.083Z,98922.57
2018-09-11T09:43:35.754Z,98922.67
2018-09-11T09:46:15.168Z,98925.60
2018-09-11T09:48:46.676Z,98925.91
2018-09-11T09:51:17.673Z,98920.27
2018-09-11T09:53:49.423Z,98927.50
2018-09-11T09:56:21.656Z,98927.48
2018-09-11T09:58:52.624Z,98929.78
2018-09-11T10:01:28.142Z,98937.49
2018-09-11T10:04:00.329Z,98933.19
2018-09-11T10:06:30.626Z,98924.97
2018-09-11T10:09:01.359Z,98919.73
2018-09-11T10:11:31.826Z,98912.02
2018-09-11T10:14:02.148Z,98906.13
2018-09-11T10:16:38.740Z,98900.20
2018-09-11T10:19:10.014Z,98899.36
2018-09-11T10:21:40.387Z,98892.31
2018-09-11T10:24:11.233Z,98900.92
2018-09-11T10:26:41.694Z,98890.13
2018-09-11T10:29:12.740Z,98895.84
2018-09-11T10:31:43.817Z,98892.66
2018-09-11T10:34:17.096Z,98880.67
2018-09-11T10:36:57.962Z,98880.34
2018-09-11T10:39:28.714Z,98879.08
2018-09-11T10:41:59.106Z,98894.45
2018-09-11T10:44:30.338Z,98888.36
2018-09-11T10:47:00.418Z,98878.77
2018-09-11T10:49:31.591Z,98889.71
2018-09-11T10:52:02.073Z,98876.53
2018-09-11T10:54:32.157Z,98881.30
2018-09-11T10:57:03.546Z,98879.44
2018-09-11T10:59:33.577Z,98876.45
2018-09-11T11:02:03.599Z,98873.83
2018-09-11T11:04:33.727Z,98886.47
2018-09-11T11:07:13.320Z,98874.16
2018-09-11T11:09:43.578Z,98873.78
2018-09-11T11:12:13.960Z,98870.78
2018-09-11T11:14:45.022Z,98873.46
2018-09-11T11:17:16.228Z,98858.41
2018-09-11T11:19:48.130Z,98874.17
2018-09-11T11:22:18.706Z,98867.84
2018-09-11T11:24:49.252Z,98873.25
2018-09-11T11:27:19.658Z,98861.95
2018-09-11T11:29:50.658Z,98858.07
2018-09-11T11:32:21.298Z,98865.37
2018-09-11T11:34:52.004Z,98860.55
2018-09-11T11:37:23.746Z,98849.25
2018-09-11T11:39:56.007Z,98868.34
2018-09-11T11:42:43.275Z,98873.64
2018-09-11T11:45:14.370Z,98870.70
2018-09-11T11:47:45.353Z,98866.72
2018-09-11T11:50:16.802Z,98865.95
2018-09-11T11:52:47.513Z,98863.40
2018-09-11T11:55:19.352Z,98866.67
2018-09-11T11:57:49.743Z,98863.27
2018-09-11T12:00:20.496Z,98856.45
2018-09-11T12:02:54.695Z,98857.06
2018-09-11T12:05:24.970Z,98851.19
2018-09-11T12:07:55.219Z,98859.70
2018-09-11T12:10:26.324Z,98850.00
2018-09-11T12:12:57.515Z,98847.66
2018-09-11T12:15:27.603Z,98852.00
2018-09-11T12:17:58.493Z,98855.66
2018-09-11T12:20:30.595Z,98851.88
2018-09-11T12:23:01.279Z,98835.48
2018-09-11T12:25:32.446Z,98844.15
2018-09-11T12:28:02.868Z,98838.54
2018-09-11T12:30:34.076Z,98838.64
2018-09-11T12:33:05.164Z,98832.23
2018-09-11T12:35:36.762Z,98821.98
2018-09-11T12:38:07.162Z,98825.36
2018-09-11T12:40:38.981Z,98812.67
2018-09-11T12:43:10.019Z,98812.80
2018-09-11T12:45:42.303Z,98798.42
2018-09-11T12:48:13.056Z,98789.45
2018-09-11T12:50:43.869Z,98784.48
2018-09-11T12:53:14.276Z,98784.77
2018-09-11T12:55:47.942Z,98777.17
2018-09-11T12:58:19.118Z,98770.39
2018-09-11T13:00:49.547Z,98769.53
2018-09-11T13:03:22.423Z,98778.29
2018-09-11T13:05:53.029Z,98782.13
2018-09-11T13:08:23.629Z,98776.17
2018-09-11T13:10:53.813Z,98777.35
2018-09-11T13:13:24.224Z,98772.72
2018-09-11T13:15:54.908Z,98773.81
2018-09-11T13:18:25.265Z,98782.78
2018-09-11T13:20:56.461Z,98774.53
2018-09-11T13:23:27.705Z,98771.77
2018-09-11T13:25:57.937Z,98776.81
2018-09-11T13:28:29.453Z,98767.86
2018-09-11T13:30:59.507Z,98767.67
2018-09-11T13:33:30.671Z,98767.48
2018-09-11T13:36:00.863Z,98759.46
2018-09-11T13:38:32.609Z,98761.11
2018-09-11T13:41:03.217Z,98760.46
2018-09-11T13:43:33.989Z,98759.16
2018-09-11T13:46:05.917Z,98762.02
2018-09-11T13:48:36.087Z,98752.83
2018-09-11T13:51:06.535Z,98753.43
2018-09-11T13:53:38.025Z,98749.45
2018-09-11T13:56:09.391Z,98738.66
2018-09-11T13:58:39.729Z,98757.27
2018-09-11T14:01:11.532Z,98751.92
2018-09-11T14:03:42.089Z,98745.97
2018-09-11T14:06:13.027Z,98748.00
2018-09-11T14:08:45.155Z,98750.39
2018-09-11T14:11:16.155Z,98738.94
2018-09-11T14:13:47.689Z,98738.84
2018-09-11T14:16:18.658Z,98731.75
2018-09-11T14:18:51.153Z,98752.96
2018-09-11T14:21:21.940Z,98741.59
2018-09-11T14:23:53.293Z,98747.25
2018-09-11T14:26:23.695Z,98738.41
2018-09-11T14:28:54.140Z,98742.09
2018-09-11T14:31:27.391Z,98742.31
2018-09-11T14:33:59.055Z,98746.89
2018-09-11T14:36:29.934Z,98741.91
2018-09-11T14:39:01.707Z,98742.20
2018-09-11T14:41:34.250Z,98743.95
2018-09-11T14:44:05.492Z,98735.03
2018-09-11T14:46:36.187Z,98739.62
2018-09-11T14:49:07.124Z,98734.40
2018-09-11T14:51:37.859Z,98727.80
2018-09-11T14:54:08.516Z,98725.36
2018-09-11T14:56:42.270Z,98734.73
2018-09-11T14:59:12.792Z,98727.96
2018-09-11T15:01:44.299Z,98729.08
2018-09-11T15:04:14.473Z,98720.11
2018-09-11T15:06:44.558Z,98724.44
2018-09-11T15:09:15.666Z,98727.33
2018-09-11T15:11:45.798Z,98728.20
2018-09-11T15:14:16.134Z,98724.38
2018-09-11T15:16:48.336Z,98718.30
2018-09-11T15:19:18.890Z,98723.06
2018-09-11T15:21:48.988Z,98722.56
2018-09-11T15:24:21.469Z,98718.45
2018-09-11T15:26:51.968Z,98713.98
2018-09-11T15:29:22.280Z,98715.92
2018-09-11T15:31:52.774Z,98726.84
2018-09-11T15:34:23.060Z,98741.33
2018-09-11T15:36:53.933Z,98717.53
2018-09-11T15:39:24.548Z,98719.53
2018-09-11T15:41:55.066Z,98716.00
2018-09-11T15:44:27.121Z,98724.06
2018-09-11T15:46:58.156Z,98718.56
2018-09-11T15:49:29.048Z,98726.59
2018-09-11T15:52:02.008Z,98725.30
2018-09-11T15:54:32.277Z,98712.85
2018-09-11T15:57:02.696Z,98720.40
2018-09-11T15:59:33.281Z,98722.52
2018-09-11T16:02:04.546Z,98715.57
2018-09-11T16:04:35.253Z,98706.62
2018-09-11T16:07:06.553Z,98708.62
2018-09-11T16:09:37.026Z,98714.41
2018-09-11T16:12:07.721Z,98706.20
2018-09-11T16:14:38.784Z,98712.73
2018-09-11T16:17:08.946Z,98710.32
2018-09-11T16:19:40.618Z,98699.14
2018-09-11T16:22:10.790Z,98699.63
2018-09-11T16:24:42.776Z,98694.62
2018-09-11T16:27:14.415Z,98697.86
2018-09-11T16:29:56.731Z,98691.94
2018-09-11T16:32:40.456Z,98689.44
2018-09-11T16:35:23.112Z,98695.66
2018-09-11T16:37:53.626Z,98697.45
2018-09-11T16:40:24.784Z,98696.35
2018-09-11T16:42:56.755Z,98697.08
2018-09-11T16:45:31.771Z,98697.05
2018-09-11T16:48:06.320Z,98702.12
2018-09-11T16:50:36.599Z,98692.72
2018-09-11T16:53:06.909Z,98698.25
2018-09-11T16:55:37.889Z,98689.85
2018-09-11T16:58:09.198Z,98688.19
2018-09-11T17:00:44.053Z,98692.48
2018-09-11T17:03:14.932Z,98689.90
2018-09-11T17:05:46.377Z,98692.28
2018-09-11T17:08:16.947Z,98682.36
2018-09-11T17:10:47.959Z,98686.52
2018-09-11T17:13:20.273Z,98684.64
2018-09-11T17:15:51.919Z,98679.08
2018-09-11T17:18:23.695Z,98680.23
2018-09-11T17:20:55.233Z,98683.63
2018-09-11T17:23:30.798Z,98687.51
2018-09-11T17:26:02.731Z,98692.08
2018-09-11T17:28:34.447Z,98687.33
2018-09-11T17:31:12.700Z,98689.66
2018-09-11T17:33:43.040Z,98682.59
2018-09-11T17:36:13.201Z,98676.83
2018-09-11T17:38:43.391Z,98681.38
2018-09-11T17:41:13.542Z,98684.20
2018-09-11T17:43:44.849Z,98685.20
2018-09-11T17:46:15.751Z,98689.91
2018-09-11T17:48:46.553Z,98686.09
2018-09-11T17:58:06.665Z,98693.72
2018-09-11T18:00:36.871Z,98697.84
2018-09-11T18:03:08.178Z,98697.84
2018-09-11T18:05:39.968Z,98707.61
2018-09-11T18:08:10.802Z,98703.06
2018-09-11T18:10:42.353Z,98699.70
2018-09-11T18:13:14.064Z,98707.47
2018-09-11T18:15:44.917Z,98714.31
2018-09-11T18:18:20.389Z,98720.41
2018-09-11T18:20:50.883Z,98719.83
2018-09-11T18:23:21.295Z,98725.30
2018-09-11T18:25:51.593Z,98730.88
2018-09-11T18:28:21.843Z,98734.35
2018-09-11T18:30:55.444Z,98733.28
2018-09-11T18:33:26.124Z,98732.85
2018-09-11T18:35:56.477Z,98738.79
2018-09-11T18:38:27.715Z,98743.03
2018-09-11T18:40:57.842Z,98748.83
2018-09-11T18:43:28.955Z,98749.55
2018-09-11T18:45:59.504Z,98746.16
2018-09-11T18:48:30.549Z,98752.06
2018-09-11T18:51:04.643Z,98758.72
2018-09-11T18:53:36.759Z,98762.23
2018-09-11T18:56:06.927Z,98764.63
2018-09-11T18:58:37.600Z,98764.97
2018-09-11T19:01:07.739Z,98764.95
2018-09-11T19:03:37.901Z,98770.27
2018-09-11T19:06:08.154Z,98771.81
2018-09-11T19:08:39.163Z,98779.29
2018-09-11T19:11:09.341Z,98780.84
2018-09-11T19:13:39.316Z,98781.53
2018-09-11T19:16:09.521Z,98785.46
2018-09-11T19:18:39.909Z,98784.34
2018-09-11T19:21:10.899Z,98780.41
2018-09-11T19:23:42.013Z,98783.94
2018-09-11T19:26:12.119Z,98780.90
2018-09-11T19:28:42.283Z,98776.82
2018-09-11T19:31:12.493Z,98780.49
2018-09-11T19:33:43.980Z,98779.61
2018-09-11T19:36:14.395Z,98782.23
2018-09-11T19:38:45.160Z,98784.38
2018-09-11T19:41:15.538Z,98780.95
2018-09-11T19:43:45.483Z,98778.36
2018-09-11T19:46:16.123Z,98775.08
2018-09-11T19:48:47.263Z,98781.83
2018-09-11T19:51:17.339Z,98779.08
2018-09-11T19:53:47.593Z,98783.38
2018-09-11T19:56:17.738Z,98778.47
2018-09-11T19:58:51.038Z,98779.89
2018-09-11T20:01:21.157Z,98783.70
2018-09-11T20:03:53.888Z,98782.91
2018-09-11T20:06:24.448Z,98782.80
2018-09-11T20:08:54.586Z,98778.82
2018-09-11T20:11:24.704Z,98787.80
2018-09-11T20:13:54.794Z,98785.82
2018-09-11T20:16:26.482Z,98783.00
2018-09-11T20:18:56.677Z,98781.52
2018-09-11T20:21:26.786Z,98784.78
2018-09-11T20:23:56.910Z,98784.78
2018-09-11T20:26:28.179Z,98784.34
2018-09-11T20:28:58.299Z,98787.50
2018-09-11T20:31:28.346Z,98780.46
2018-09-11T20:33:59.490Z,98784.84
2018-09-11T20:36:31.322Z,98784.05
2018-09-11T20:39:02.955Z,98786.88
2018-09-11T20:41:38.677Z,98787.30
2018-09-11T20:44:10.756Z,98791.26
2018-09-11T20:46:40.857Z,98788.78
2018-09-11T20:49:11.814Z,98785.39
2018-09-11T20:51:42.083Z,98788.98
2018-09-11T20:54:13.821Z,98786.64
2018-09-11T20:56:44.038Z,98789.64
2018-09-11T20:59:15.112Z,98793.62
2018-09-11T21:01:45.278Z,98799.76
2018-09-11T21:04:16.488Z,98800.70
2018-09-11T21:06:48.011Z,98803.81
2018-09-11T21:09:18.544Z,98802.68
2018-09-11T21:11:49.856Z,98804.56
2018-09-11T21:14:20.094Z,98802.61
2018-09-11T21:16:52.454Z,98811.47
2018-09-11T21:19:27.435Z,98813.42
2018-09-11T21:21:57.510Z,98806.66
2018-09-11T21:24:28.286Z,98813.34
2018-09-11T21:26:58.450Z,98808.16
2018-09-11T21:29:30.542Z,98819.17
2018-09-11T21:32:02.505Z,98815.39
2018-09-11T21:34:33.024Z,98816.99
2018-09-11T21:37:03.065Z,98821.58
2018-09-11T21:39:35.101Z,98821.06
2018-09-11T21:42:07.447Z,98821.45
2018-09-11T21:44:38.547Z,98818.97
2018-09-11T21:47:10.422Z,98819.70
2018-09-11T21:49:40.468Z,98824.57
2018-09-11T21:52:11.510Z,98823.14
2018-09-11T21:54:41.961Z,98827.92
2018-09-11T21:57:12.154Z,98831.22
2018-09-11T21:59:42.857Z,98830.53
2018-09-11T22:02:12.985Z,98830.99
2018-09-11T22:04:44.317Z,98833.98
2018-09-11T22:07:15.868Z,98828.96
2018-09-11T22:09:46.079Z,98829.34
2018-09-11T22:12:16.601Z,98831.90
2018-09-11T22:14:47.503Z,98837.14
2018-09-11T22:17:17.858Z,98834.34
2018-09-11T22:19:49.124Z,98834.81
2018-09-11T22:22:19.250Z,98833.66
2018-09-11T22:24:49.907Z,98831.95
2018-09-11T22:27:19.995Z,98833.31
2018-09-11T22:29:51.532Z,98828.41
2018-09-11T22:32:23.200Z,98831.58
2018-09-11T22:34:53.243Z,98836.46
2018-09-11T22:37:23.986Z,98837.55
2018-09-11T22:39:54.258Z,98832.09
2018-09-11T22:42:25.282Z,98836.77
2018-09-11T22:44:55.945Z,98833.14
2018-09-11T22:47:27.486Z,98840.88
2018-09-11T22:49:57.942Z,98843.66
2018-09-11T22:52:28.148Z,98842.58
2018-09-11T22:54:58.357Z,98845.41
2018-09-11T22:57:29.672Z,98841.69
2018-09-11T23:00:00.904Z,98840.45
2018-09-11T23:02:32.934Z,98841.87
2018-09-11T23:05:03.216Z,98838.03
2018-09-11T23:07:33.258Z,98832.26
2018-09-11T23:10:05.236Z,98837.67
2018-09-11T23:12:35.306Z,98838.52
2018-09-11T23:15:05.541Z,98834.34
2018-09-11T23:17:37.558Z,98838.09
2018-09-11T23:20:08.216Z,98832.12
2018-09-11T23:22:41.616Z,98835.72
2018-09-11T23:25:11.910Z,98834.41
2018-09-11T23:27:42.334Z,98837.51
2018-09-11T23:30:14.284Z,98839.22
2018-09-11T23:32:44.570Z,98832.25
2018-09-11T23:35:16.717Z,98822.03
2018-09-11T23:37:47.462Z,98828.33
2018-09-11T23:40:17.926Z,98831.03
2018-09-11T23:42:48.817Z,98831.41
2018-09-11T23:45:18.854Z,98829.58
2018-09-11T23:47:50.689Z,98830.73
2018-09-11T23:50:21.081Z,98836.05
2018-09-11T23:52:52.957Z,98831.05
2018-09-11T23:55:23.999Z,98831.20
2018-09-11T23:57:54.863Z,98826.05
